createdAt,value
2019-02-09T00:02:18.302Z,7.80
2019-02-09T00:04:48.560Z,8.00
2019-02-09T00:07:18.898Z,8.10
2019-02-09T00:09:48.974Z,8.30
2019-02-09T00:12:19.608Z,8.40
2019-02-09T00:14:50.196Z,8.40
2019-02-09T00:17:21.052Z,8.50
2019-02-09T00:19:51.513Z,8.60
2019-02-09T00:22:21.720Z,8.40
2019-02-09T00:24:52.450Z,8.30
2019-02-09T00:27:22.989Z,8.20
2019-02-09T00:29:53.428Z,8.10
2019-02-09T00:32:24.490Z,8.10
2019-02-09T00:34:55.526Z,8.00
2019-02-09T00:37:26.248Z,8.00
2019-02-09T00:39:56.916Z,8.00
2019-02-09T00:42:27.510Z,8.00
2019-02-09T00:44:58.117Z,8.10
2019-02-09T00:47:28.728Z,8.20
2019-02-09T00:49:58.844Z,8.20
2019-02-09T00:52:29.446Z,8.30
2019-02-09T00:54:59.940Z,8.30
2019-02-09T00:57:30.544Z,8.40
2019-02-09T01:00:01.228Z,8.40
2019-02-09T01:02:31.964Z,8.40
2019-02-09T01:05:02.400Z,8.40
2019-02-09T01:07:33.102Z,8.50
2019-02-09T01:10:03.310Z,8.40
2019-02-09T01:12:34.063Z,8.40
2019-02-09T01:15:06.690Z,8.40
2019-02-09T01:17:37.636Z,8.40
2019-02-09T01:20:10.036Z,8.20
2019-02-09T01:22:40.715Z,8.20
2019-02-09T01:25:11.348Z,8.00
2019-02-09T01:27:43.424Z,7.90
2019-02-09T01:30:16.752Z,7.70
2019-02-09T01:32:48.676Z,7.60
2019-02-09T01:35:18.936Z,7.40
2019-02-09T01:37:50.263Z,7.30
2019-02-09T01:40:22.634Z,7.20
2019-02-09T01:42:53.632Z,7.10
2019-02-09T01:45:28.770Z,7.00
2019-02-09T01:47:59.218Z,6.90
2019-02-09T01:50:31.026Z,6.90
2019-02-09T01:53:01.903Z,6.80
2019-02-09T01:55:32.560Z,6.90
2019-02-09T01:58:02.985Z,6.90
2019-02-09T02:00:34.629Z,7.00
2019-02-09T02:03:05.708Z,7.00
2019-02-09T02:05:36.446Z,7.10
2019-02-09T02:08:07.558Z,7.10
2019-02-09T02:10:39.632Z,7.20
2019-02-09T02:13:10.844Z,7.30
2019-02-09T02:15:42.248Z,7.40
2019-02-09T02:18:12.519Z,7.40
2019-02-09T02:20:43.328Z,7.50
2019-02-09T02:23:13.439Z,7.60
2019-02-09T02:25:43.863Z,7.60
2019-02-09T02:28:14.739Z,7.60
2019-02-09T02:30:46.537Z,7.70
2019-02-09T02:33:17.569Z,7.80
2019-02-09T02:35:48.328Z,7.80
2019-02-09T02:38:19.275Z,7.80
2019-02-09T02:40:50.301Z,7.80
2019-02-09T02:43:20.765Z,7.80
2019-02-09T02:45:51.711Z,7.80
2019-02-09T02:48:22.259Z,7.80
2019-02-09T02:50:52.704Z,7.80
2019-02-09T02:53:23.245Z,7.80
2019-02-09T02:55:54.181Z,7.70
2019-02-09T02:58:25.114Z,7.60
2019-02-09T03:00:55.613Z,7.50
2019-02-09T03:03:26.389Z,7.30
2019-02-09T03:05:57.501Z,7.30
2019-02-09T03:08:27.906Z,7.20
2019-02-09T03:10:58.912Z,7.20
2019-02-09T03:13:29.505Z,7.20
2019-02-09T03:16:00.246Z,7.20
2019-02-09T03:18:31.025Z,7.20
2019-02-09T03:21:01.726Z,7.20
2019-02-09T03:23:32.185Z,7.20
2019-02-09T03:26:02.569Z,7.30
2019-02-09T03:28:33.189Z,7.30
2019-02-09T03:31:03.662Z,7.30
2019-02-09T03:33:34.395Z,7.40
2019-02-09T03:36:05.171Z,7.40
2019-02-09T03:38:35.951Z,7.40
2019-02-09T03:41:07.165Z,7.40
2019-02-09T03:43:38.135Z,7.50
2019-02-09T03:46:09.057Z,7.50
2019-02-09T03:48:39.729Z,7.50
2019-02-09T03:51:09.637Z,7.50
2019-02-09T03:53:40.339Z,7.60
2019-02-09T03:56:10.974Z,7.60
2019-02-09T03:58:41.141Z,7.60
2019-02-09T04:01:11.620Z,7.70
2019-02-09T04:03:42.210Z,7.70
2019-02-09T04:06:12.788Z,7.80
2019-02-09T04:08:43.313Z,7.80
2019-02-09T04:11:14.485Z,7.90
2019-02-09T04:13:44.218Z,7.90
2019-02-09T04:16:15.097Z,7.90
2019-02-09T04:18:45.961Z,7.90
2019-02-09T04:21:16.710Z,7.90
2019-02-09T04:23:47.229Z,7.90
2019-02-09T04:26:17.339Z,7.80
2019-02-09T04:28:48.209Z,7.80
2019-02-09T04:31:18.730Z,7.70
2019-02-09T04:33:49.010Z,7.60
2019-02-09T04:36:19.590Z,7.50
2019-02-09T04:38:50.491Z,7.50
2019-02-09T04:41:20.726Z,7.40
2019-02-09T04:43:50.773Z,7.40
2019-02-09T04:46:21.276Z,7.40
2019-02-09T04:48:51.874Z,7.40
2019-02-09T04:51:22.361Z,7.40
2019-02-09T04:53:52.946Z,7.40
2019-02-09T04:56:23.615Z,7.40
2019-02-09T04:58:54.282Z,7.50
2019-02-09T05:01:24.667Z,7.50
2019-02-09T05:03:55.094Z,7.50
2019-02-09T05:06:25.561Z,7.40
2019-02-09T05:08:56.423Z,7.50
2019-02-09T05:11:27.044Z,7.50
2019-02-09T05:13:57.577Z,7.40
2019-02-09T05:16:27.868Z,7.40
2019-02-09T05:18:58.927Z,7.40
2019-02-09T05:21:29.892Z,7.40
2019-02-09T05:24:00.148Z,7.30
2019-02-09T05:26:29.930Z,7.30
2019-02-09T05:29:00.546Z,7.30
2019-02-09T05:31:31.274Z,7.30
2019-02-09T05:34:02.322Z,7.30
2019-02-09T05:36:33.332Z,7.40
2019-02-09T05:39:04.737Z,7.40
2019-02-09T05:41:35.602Z,7.40
2019-02-09T05:44:06.559Z,7.50
2019-02-09T05:46:36.794Z,7.50
2019-02-09T05:49:07.588Z,7.50
2019-02-09T05:51:38.032Z,7.50
2019-02-09T05:54:08.026Z,7.50
2019-02-09T05:56:38.323Z,7.40
2019-02-09T05:59:08.627Z,7.30
2019-02-09T06:01:40.889Z,7.30
2019-02-09T06:04:12.018Z,7.30
2019-02-09T06:06:42.686Z,7.30
2019-02-09T06:09:13.721Z,7.20
2019-02-09T06:11:43.934Z,7.20
2019-02-09T06:14:14.278Z,7.20
2019-02-09T06:16:45.047Z,7.20
2019-02-09T06:19:15.412Z,7.20
2019-02-09T06:21:45.876Z,7.10
2019-02-09T06:24:16.926Z,7.10
2019-02-09T06:26:47.542Z,7.10
2019-02-09T06:29:17.684Z,7.10
2019-02-09T06:31:48.423Z,7.00
2019-02-09T06:34:19.192Z,7.00
2019-02-09T06:36:49.925Z,7.00
2019-02-09T06:39:20.454Z,7.00
2019-02-09T06:41:50.771Z,6.90
2019-02-09T06:44:21.556Z,7.00
2019-02-09T06:46:51.970Z,7.00
2019-02-09T06:49:22.369Z,7.00
2019-02-09T06:51:53.157Z,7.10
2019-02-09T06:54:23.288Z,7.10
2019-02-09T06:56:53.551Z,7.20
2019-02-09T06:59:24.648Z,7.20
2019-02-09T07:01:56.590Z,7.30
2019-02-09T07:04:27.362Z,7.40
2019-02-09T07:06:57.809Z,7.50
2019-02-09T07:09:28.315Z,7.50
2019-02-09T07:11:58.919Z,7.50
2019-02-09T07:14:29.889Z,7.50
2019-02-09T07:17:00.516Z,7.50
2019-02-09T07:19:31.558Z,7.50
2019-02-09T07:22:01.819Z,7.50
2019-02-09T07:24:32.365Z,7.50
2019-02-09T07:27:02.401Z,7.50
2019-02-09T07:29:33.349Z,7.50
2019-02-09T07:32:03.815Z,7.50
2019-02-09T07:34:34.226Z,7.40
2019-02-09T07:37:04.641Z,7.50
2019-02-09T07:39:35.535Z,7.40
2019-02-09T07:42:06.349Z,7.50
2019-02-09T07:44:36.777Z,7.40
2019-02-09T07:47:08.407Z,7.40
2019-02-09T07:49:38.958Z,7.50
2019-02-09T07:52:09.862Z,7.50
2019-02-09T07:54:40.530Z,7.50
2019-02-09T07:57:11.243Z,7.60
2019-02-09T07:59:42.334Z,7.60
2019-02-09T08:02:13.028Z,7.60
2019-02-09T08:04:43.626Z,7.70
2019-02-09T08:07:14.215Z,7.80
2019-02-09T08:09:45.093Z,7.80
2019-02-09T08:12:15.789Z,7.80
2019-02-09T08:14:46.137Z,7.90
2019-02-09T08:17:16.718Z,8.40
2019-02-09T08:19:47.503Z,9.00
2019-02-09T08:22:18.165Z,9.30
2019-02-09T08:24:48.705Z,9.40
2019-02-09T08:27:23.683Z,9.30
2019-02-09T08:29:50.969Z,9.30
2019-02-09T08:32:21.703Z,9.40
2019-02-09T08:34:52.129Z,9.90
2019-02-09T08:37:23.101Z,10.10
2019-02-09T08:39:53.860Z,10.20
2019-02-09T08:42:24.264Z,10.20
2019-02-09T08:44:55.049Z,10.30
2019-02-09T08:47:25.789Z,10.60
2019-02-09T08:49:56.542Z,11.00
2019-02-09T08:52:28.255Z,11.20
2019-02-09T08:54:58.483Z,11.00
2019-02-09T08:57:28.948Z,10.60
2019-02-09T08:59:59.985Z,10.40
2019-02-09T09:02:30.073Z,10.40
2019-02-09T09:05:00.390Z,10.40
2019-02-09T09:07:30.987Z,10.50
2019-02-09T09:10:02.059Z,10.40
2019-02-09T09:12:32.087Z,10.40
2019-02-09T09:15:02.497Z,10.20
2019-02-09T09:17:33.439Z,10.00
2019-02-09T09:20:04.575Z,9.90
2019-02-09T09:22:34.718Z,9.80
2019-02-09T09:25:06.156Z,9.70
2019-02-09T09:27:36.846Z,9.70
2019-02-09T09:30:08.929Z,9.90
2019-02-09T09:32:39.160Z,10.30
2019-02-09T09:35:10.038Z,10.80
2019-02-09T09:37:40.992Z,11.00
2019-02-09T09:40:15.962Z,11.20
2019-02-09T09:42:46.710Z,11.60
2019-02-09T09:45:20.264Z,12.40
2019-02-09T09:47:51.250Z,13.30
2019-02-09T09:50:22.633Z,13.70
2019-02-09T09:52:53.769Z,14.00
2019-02-09T09:55:24.733Z,13.70
2019-02-09T09:57:55.776Z,13.70
2019-02-09T10:00:26.674Z,13.80
2019-02-09T10:02:57.698Z,13.50
2019-02-09T10:05:28.357Z,13.30
2019-02-09T10:07:59.128Z,12.90
2019-02-09T10:10:29.890Z,12.40
2019-02-09T10:13:00.926Z,11.80
2019-02-09T10:15:31.874Z,11.40
2019-02-09T10:18:02.555Z,11.00
2019-02-09T10:20:33.681Z,10.80
2019-02-09T10:23:03.857Z,11.00
2019-02-09T10:25:34.250Z,11.40
2019-02-09T10:28:06.191Z,11.60
2019-02-09T10:30:37.082Z,11.80
2019-02-09T10:33:07.560Z,12.10
2019-02-09T10:35:37.902Z,12.40
2019-02-09T10:38:08.302Z,12.60
2019-02-09T10:40:39.212Z,12.50
2019-02-09T10:43:09.896Z,12.60
2019-02-09T10:45:40.840Z,12.50
2019-02-09T10:48:12.036Z,12.50
2019-02-09T10:50:44.752Z,12.60
2019-02-09T10:53:15.142Z,12.60
2019-02-09T10:55:45.852Z,12.60
2019-02-09T10:58:17.369Z,12.70
2019-02-09T11:00:59.613Z,12.80
2019-02-09T11:03:29.791Z,12.80
2019-02-09T11:06:00.171Z,12.70
2019-02-09T11:08:30.364Z,12.50
2019-02-09T11:11:00.821Z,12.40
2019-02-09T11:13:31.891Z,12.30
2019-02-09T11:16:02.255Z,12.20
2019-02-09T11:18:32.687Z,12.20
2019-02-09T11:21:03.074Z,12.50
2019-02-09T11:23:33.531Z,12.70
2019-02-09T11:26:04.723Z,12.80
2019-02-09T11:28:35.144Z,12.60
2019-02-09T11:31:05.503Z,12.40
2019-02-09T11:33:36.173Z,12.30
2019-02-09T11:36:07.137Z,12.30
2019-02-09T11:38:38.020Z,12.10
2019-02-09T11:41:08.215Z,12.30
2019-02-09T11:43:38.653Z,12.60
2019-02-09T11:46:09.601Z,12.90
2019-02-09T11:48:40.575Z,13.00
2019-02-09T11:51:11.485Z,13.10
2019-02-09T11:53:42.430Z,12.80
2019-02-09T11:56:12.821Z,12.60
2019-02-09T11:58:43.406Z,12.90
2019-02-09T12:01:13.951Z,13.20
2019-02-09T12:03:44.924Z,13.40
2019-02-09T12:06:15.867Z,13.00
2019-02-09T12:08:46.755Z,12.50
2019-02-09T12:11:17.821Z,12.00
2019-02-09T12:13:55.224Z,11.60
2019-02-09T12:16:20.349Z,11.40
2019-02-09T12:18:50.400Z,11.20
2019-02-09T12:21:21.461Z,11.10
2019-02-09T12:23:52.232Z,11.10
2019-02-09T12:26:22.975Z,11.10
2019-02-09T12:28:53.804Z,11.30
2019-02-09T12:31:24.550Z,11.50
2019-02-09T12:33:55.145Z,11.80
2019-02-09T12:36:25.292Z,12.40
2019-02-09T12:38:55.969Z,13.00
2019-02-09T12:41:26.689Z,13.60
2019-02-09T12:43:57.080Z,13.70
2019-02-09T12:46:27.751Z,13.50
2019-02-09T12:48:58.139Z,13.10
2019-02-09T12:51:28.881Z,13.30
2019-02-09T12:53:59.427Z,13.80
2019-02-09T12:56:30.038Z,14.00
2019-02-09T12:59:00.632Z,14.20
2019-02-09T13:01:30.833Z,14.40
2019-02-09T13:04:01.180Z,14.10
2019-02-09T13:06:31.865Z,14.10
2019-02-09T13:09:02.465Z,14.00
2019-02-09T13:11:34.843Z,14.20
2019-02-09T13:14:05.510Z,14.50
2019-02-09T13:16:36.205Z,14.20
2019-02-09T13:19:06.613Z,14.10
2019-02-09T13:21:37.301Z,14.00
2019-02-09T13:24:07.788Z,13.80
2019-02-09T13:26:38.416Z,13.90
2019-02-09T13:29:08.737Z,13.70
2019-02-09T13:31:39.538Z,13.50
2019-02-09T13:34:09.830Z,13.40
2019-02-09T13:36:40.669Z,13.30
2019-02-09T13:39:11.327Z,13.10
2019-02-09T13:41:42.089Z,12.90
2019-02-09T13:44:12.467Z,12.70
2019-02-09T13:46:42.608Z,12.60
2019-02-09T13:49:13.112Z,12.50
2019-02-09T13:51:43.396Z,12.30
2019-02-09T13:54:14.006Z,12.20
2019-02-09T13:56:44.285Z,12.00
2019-02-09T13:59:14.542Z,11.90
2019-02-09T14:01:44.803Z,11.80
2019-02-09T14:04:15.333Z,11.70
2019-02-09T14:06:46.007Z,11.60
2019-02-09T14:09:16.354Z,11.50
2019-02-09T14:11:46.880Z,11.40
2019-02-09T14:14:16.744Z,11.30
2019-02-09T14:16:46.932Z,11.20
2019-02-09T14:19:17.394Z,11.20
2019-02-09T14:21:48.180Z,11.10
2019-02-09T14:24:18.603Z,10.90
2019-02-09T14:26:49.293Z,10.70
2019-02-09T14:29:19.628Z,10.70
2019-02-09T14:31:50.415Z,10.60
2019-02-09T14:34:20.658Z,10.60
2019-02-09T14:36:51.494Z,10.60
2019-02-09T14:39:22.138Z,10.60
2019-02-09T14:41:52.812Z,10.60
2019-02-09T14:44:23.618Z,10.60
2019-02-09T14:46:53.734Z,10.60
2019-02-09T14:49:24.361Z,10.60
2019-02-09T14:51:54.824Z,10.60
2019-02-09T14:54:25.016Z,10.50
2019-02-09T14:56:55.764Z,10.60
2019-02-09T14:59:26.416Z,10.50
2019-02-09T15:01:56.824Z,10.50
2019-02-09T15:04:27.762Z,10.50
2019-02-09T15:06:58.413Z,10.50
2019-02-09T15:09:28.812Z,10.50
2019-02-09T15:11:59.036Z,10.40
2019-02-09T15:14:29.026Z,10.40
2019-02-09T15:17:05.556Z,10.30
2019-02-09T15:19:37.255Z,10.30
2019-02-09T15:22:08.413Z,10.30
2019-02-09T15:24:38.854Z,10.30
2019-02-09T15:27:09.612Z,10.30
2019-02-09T15:29:39.895Z,10.20
2019-02-09T15:32:10.568Z,10.20
2019-02-09T15:34:41.861Z,10.20
2019-02-09T15:37:12.506Z,10.10
2019-02-09T15:39:43.465Z,10.10
2019-02-09T15:42:16.041Z,10.00
2019-02-09T15:44:46.777Z,10.00
2019-02-09T15:47:17.468Z,9.90
2019-02-09T15:49:47.862Z,9.90
2019-02-09T15:52:17.999Z,9.80
2019-02-09T15:54:48.764Z,9.80
2019-02-09T15:57:19.563Z,9.80
2019-02-09T15:59:50.224Z,9.70
2019-02-09T16:02:21.008Z,9.70
2019-02-09T16:04:51.275Z,9.60
2019-02-09T16:07:22.331Z,9.60
2019-02-09T16:09:52.522Z,9.50
2019-02-09T16:12:23.488Z,9.50
2019-02-09T16:14:53.888Z,9.50
2019-02-09T16:17:24.399Z,9.40
2019-02-09T16:19:55.415Z,9.30
2019-02-09T16:22:26.056Z,9.30
2019-02-09T16:24:56.359Z,9.20
2019-02-09T16:27:27.340Z,9.10
2019-02-09T16:29:58.366Z,9.10
2019-02-09T16:32:28.976Z,9.00
2019-02-09T16:34:59.589Z,9.00
2019-02-09T16:37:30.209Z,9.00
2019-02-09T16:40:01.257Z,9.00
2019-02-09T16:42:32.283Z,8.90
2019-02-09T16:45:03.031Z,8.90
2019-02-09T16:47:33.431Z,8.90
2019-02-09T16:50:04.951Z,8.80
2019-02-09T16:52:35.937Z,8.80
2019-02-09T16:55:06.680Z,8.80
2019-02-09T16:57:37.267Z,8.80
2019-02-09T17:00:08.337Z,8.80
2019-02-09T17:02:39.165Z,8.70
2019-02-09T17:05:10.990Z,8.70
2019-02-09T17:07:41.409Z,8.60
2019-02-09T17:10:12.555Z,8.60
2019-02-09T17:12:43.313Z,8.60
2019-02-09T17:15:16.343Z,8.60
2019-02-09T17:17:46.867Z,8.50
2019-02-09T17:20:17.765Z,8.50
2019-02-09T17:22:48.175Z,8.50
2019-02-09T17:25:18.745Z,8.40
2019-02-09T17:27:48.944Z,8.40
2019-02-09T17:30:21.997Z,8.40
2019-02-09T17:32:52.491Z,8.40
2019-02-09T17:35:23.737Z,8.40
2019-02-09T17:37:54.406Z,8.40
2019-02-09T17:40:27.611Z,8.40
2019-02-09T17:42:58.299Z,8.40
2019-02-09T17:45:31.724Z,8.40
2019-02-09T17:48:01.682Z,8.40
2019-02-09T17:50:32.428Z,8.40
2019-02-09T17:53:03.357Z,8.40
2019-02-09T17:55:33.758Z,8.40
2019-02-09T17:58:04.298Z,8.40
2019-02-09T18:00:39.732Z,8.40
2019-02-09T18:03:09.856Z,8.40
2019-02-09T18:05:39.969Z,8.40
2019-02-09T18:08:10.932Z,8.30
2019-02-09T18:10:41.934Z,8.30
2019-02-09T18:13:12.393Z,8.30
2019-02-09T18:15:42.533Z,8.30
2019-02-09T18:18:13.574Z,8.30
2019-02-09T18:20:43.887Z,8.20
2019-02-09T18:23:14.488Z,8.20
2019-02-09T18:25:45.166Z,8.20
2019-02-09T18:28:15.992Z,8.20
2019-02-09T18:30:46.385Z,8.20
2019-02-09T18:33:17.082Z,8.20
2019-02-09T18:35:48.633Z,8.20
2019-02-09T18:38:19.264Z,8.20
2019-02-09T18:40:49.748Z,8.20
2019-02-09T18:43:20.249Z,8.20
2019-02-09T18:45:57.663Z,8.20
2019-02-09T18:48:24.310Z,8.20
2019-02-09T18:50:54.974Z,8.20
2019-02-09T18:53:25.895Z,8.20
2019-02-09T18:55:56.293Z,8.20
2019-02-09T18:58:26.634Z,8.10
2019-02-09T19:00:57.113Z,8.10
2019-02-09T19:03:28.037Z,8.10
2019-02-09T19:05:59.161Z,8.10
2019-02-09T19:08:29.862Z,8.10
2019-02-09T19:11:00.371Z,8.10
2019-02-09T19:13:30.958Z,8.10
2019-02-09T19:16:01.447Z,8.10
2019-02-09T19:18:32.540Z,8.10
2019-02-09T19:21:03.456Z,8.10
2019-02-09T19:23:33.702Z,8.20
2019-02-09T19:26:04.193Z,8.20
2019-02-09T19:28:34.620Z,8.20
2019-02-09T19:31:05.148Z,8.20
2019-02-09T19:33:35.886Z,8.20
2019-02-09T19:36:06.651Z,8.20
2019-02-09T19:38:37.482Z,8.20
2019-02-09T19:41:07.885Z,8.20
2019-02-09T19:43:38.286Z,8.20
2019-02-09T19:46:09.854Z,8.20
2019-02-09T19:48:40.146Z,8.20
2019-02-09T19:51:10.901Z,8.10
2019-02-09T19:53:41.656Z,8.10
2019-02-09T19:56:11.951Z,8.10
2019-02-09T19:58:42.480Z,8.10
2019-02-09T20:01:13.151Z,8.00
2019-02-09T20:03:43.754Z,8.00
2019-02-09T20:06:13.874Z,8.00
2019-02-09T20:08:44.267Z,8.00
2019-02-09T20:11:15.311Z,8.00
2019-02-09T20:13:45.829Z,8.00
2019-02-09T20:16:16.601Z,8.00
2019-02-09T20:18:47.526Z,8.00
2019-02-09T20:21:18.430Z,7.90
2019-02-09T20:23:49.164Z,7.90
2019-02-09T20:26:20.101Z,7.90
2019-02-09T20:28:51.479Z,7.90
2019-02-09T20:31:22.303Z,7.80
2019-02-09T20:33:52.918Z,7.80
2019-02-09T20:36:23.874Z,7.90
2019-02-09T20:38:54.314Z,7.80
2019-02-09T20:41:26.833Z,7.80
2019-02-09T20:43:57.486Z,7.80
2019-02-09T20:46:28.091Z,7.80
2019-02-09T20:48:58.925Z,7.80
2019-02-09T20:51:29.589Z,7.90
2019-02-09T20:54:00.220Z,7.90
2019-02-09T20:56:30.522Z,7.90
2019-02-09T20:59:00.991Z,7.90
2019-02-09T21:01:30.853Z,7.90
2019-02-09T21:04:01.339Z,8.00
2019-02-09T21:06:31.639Z,8.00
2019-02-09T21:09:02.489Z,8.00
2019-02-09T21:11:34.799Z,8.00
2019-02-09T21:14:05.193Z,8.00
2019-02-09T21:16:35.818Z,8.00
2019-02-09T21:19:07.194Z,7.90
2019-02-09T21:21:38.379Z,7.90
2019-02-09T21:24:09.066Z,7.90
2019-02-09T21:26:39.784Z,7.90
2019-02-09T21:29:09.882Z,7.90
2019-02-09T21:31:40.737Z,7.90
2019-02-09T21:34:11.947Z,7.90
2019-02-09T21:36:42.295Z,7.90
2019-02-09T21:39:12.687Z,7.90
2019-02-09T21:41:43.022Z,7.90
2019-02-09T21:44:13.999Z,7.90
2019-02-09T21:46:44.094Z,7.90
2019-02-09T21:49:14.615Z,7.90
2019-02-09T21:51:44.665Z,7.90
2019-02-09T21:54:14.815Z,7.80
2019-02-09T21:56:45.388Z,7.80
2019-02-09T21:59:15.633Z,7.80
2019-02-09T22:01:45.966Z,7.80
2019-02-09T22:04:16.040Z,7.80
2019-02-09T22:06:46.109Z,7.80
2019-02-09T22:09:16.957Z,7.80
2019-02-09T22:11:47.648Z,7.70
2019-02-09T22:14:18.311Z,7.70
2019-02-09T22:16:49.041Z,7.70
2019-02-09T22:19:19.718Z,7.70
2019-02-09T22:21:50.778Z,7.70
2019-02-09T22:24:21.665Z,7.70
2019-02-09T22:26:52.197Z,7.80
2019-02-09T22:29:22.356Z,7.80
2019-02-09T22:31:53.375Z,7.90
2019-02-09T22:34:23.856Z,7.90
2019-02-09T22:36:54.212Z,7.90
2019-02-09T22:39:24.489Z,7.90
2019-02-09T22:41:54.924Z,7.90
2019-02-09T22:44:25.306Z,7.90
2019-02-09T22:46:56.084Z,7.90
2019-02-09T22:49:26.861Z,7.90
2019-02-09T22:51:57.243Z,7.90
2019-02-09T22:54:28.013Z,7.80
2019-02-09T22:56:58.383Z,7.80
2019-02-09T22:59:29.464Z,7.80
2019-02-09T23:01:59.996Z,7.80
2019-02-09T23:05:09.657Z,7.80
2019-02-09T23:07:40.070Z,7.80
2019-02-09T23:10:13.538Z,7.80
2019-02-09T23:12:48.620Z,7.80
2019-02-09T23:15:16.036Z,7.80
2019-02-09T23:17:46.366Z,7.90
2019-02-09T23:20:16.754Z,7.90
2019-02-09T23:22:47.412Z,7.90
2019-02-09T23:25:18.209Z,7.90
2019-02-09T23:27:48.629Z,7.90
2019-02-09T23:30:18.874Z,8.00
2019-02-09T23:32:49.610Z,8.00
2019-02-09T23:35:20.028Z,8.00
2019-02-09T23:37:49.915Z,8.00
2019-02-09T23:40:20.574Z,8.00
2019-02-09T23:42:51.328Z,8.00
2019-02-09T23:45:21.839Z,8.00
2019-02-09T23:47:52.412Z,8.00
2019-02-09T23:50:23.002Z,8.00
2019-02-09T23:52:53.648Z,8.10
2019-02-09T23:55:23.918Z,8.00
2019-02-09T23:57:54.784Z,8.00
